sensor_id;sensor_type;location;lat;lon;timestamp;noise_LAeq;noise_LA_min;noise_LA_max;noise_LA01;noise_LA95
49215;Laerm;45943;53.148;8.204;2024-03-25T00:01:21;41.73;38.30;48.92;;
49215;Laerm;45943;53.148;8.204;2024-03-25T00:03:47;42.08;38.48;59.41;;
49215;Laerm;45943;53.148;8.204;2024-03-25T00:06:13;40.48;37.05;43.84;;
49215;Laerm;45943;53.148;8.204;2024-03-25T00:08:39;46.12;37.29;64.61;;
49215;Laerm;45943;53.148;8.204;2024-03-25T00:11:05;41.69;38.30;48.53;;
49215;Laerm;45943;53.148;8.204;2024-03-25T00:13:31;42.15;38.81;51.21;;
49215;Laerm;45943;53.148;8.204;2024-03-25T00:15:57;41.53;38.48;46.78;;
49215;Laerm;45943;53.148;8.204;2024-03-25T00:18:23;62.53;41.03;75.31;;
49215;Laerm;45943;53.148;8.204;2024-03-25T00:20:49;44.17;40.83;48.97;;
49215;Laerm;45943;53.148;8.204;2024-03-25T00:23:15;61.27;40.63;75.42;;
49215;Laerm;45943;53.148;8.204;2024-03-25T00:25:41;44.51;40.52;54.97;;
49215;Laerm;45943;53.148;8.204;2024-03-25T00:28:07;42.39;39.20;45.64;;
49215;Laerm;45943;53.148;8.204;2024-03-25T00:30:33;43.37;40.41;47.78;;
49215;Laerm;45943;53.148;8.204;2024-03-25T00:32:59;51.60;40.63;74.36;;
49215;Laerm;45943;53.148;8.204;2024-03-25T00:35:26;42.44;39.94;45.77;;
49215;Laerm;45943;53.148;8.204;2024-03-25T00:37:52;43.36;40.41;47.84;;
49215;Laerm;45943;53.148;8.204;2024-03-25T00:40:17;42.01;39.12;48.08;;
49215;Laerm;45943;53.148;8.204;2024-03-25T00:42:43;41.49;38.81;43.25;;
49215;Laerm;45943;53.148;8.204;2024-03-25T00:45:09;43.77;38.48;51.16;;
49215;Laerm;45943;53.148;8.204;2024-03-25T00:47:35;45.24;41.90;60.13;;
49215;Laerm;45943;53.148;8.204;2024-03-25T00:50:01;42.35;38.12;45.18;;
49215;Laerm;45943;53.148;8.204;2024-03-25T00:52:27;40.84;37.72;45.36;;
49215;Laerm;45943;53.148;8.204;2024-03-25T00:54:53;41.57;37.05;57.44;;
49215;Laerm;45943;53.148;8.204;2024-03-25T00:57:19;41.81;38.30;44.54;;
49215;Laerm;45943;53.148;8.204;2024-03-25T00:59:45;42.72;39.95;45.99;;
49215;Laerm;45943;53.148;8.204;2024-03-25T01:02:11;42.15;38.65;44.75;;
49215;Laerm;45943;53.148;8.204;2024-03-25T01:04:37;41.83;38.30;59.23;;
49215;Laerm;45943;53.148;8.204;2024-03-25T01:07:03;41.92;39.12;44.46;;
49215;Laerm;45943;53.148;8.204;2024-03-25T01:09:29;42.63;39.68;46.51;;
49215;Laerm;45943;53.148;8.204;2024-03-25T01:11:55;47.35;38.48;65.36;;
49215;Laerm;45943;53.148;8.204;2024-03-25T01:14:21;42.79;38.65;54.87;;
49215;Laerm;45943;53.148;8.204;2024-03-25T01:16:47;41.28;37.51;48.44;;
49215;Laerm;45943;53.148;8.204;2024-03-25T01:19:13;42.63;39.27;62.52;;
49215;Laerm;45943;53.148;8.204;2024-03-25T01:21:39;41.72;37.51;48.60;;
49215;Laerm;45943;53.148;8.204;2024-03-25T01:24:05;42.72;39.55;46.43;;
49215;Laerm;45943;53.148;8.204;2024-03-25T01:26:31;42.62;39.81;46.29;;
49215;Laerm;45943;53.148;8.204;2024-03-25T01:28:57;41.86;38.65;44.75;;
49215;Laerm;45943;53.148;8.204;2024-03-25T01:31:23;42.10;38.65;45.67;;
49215;Laerm;45943;53.148;8.204;2024-03-25T01:33:49;41.42;38.30;45.83;;
49215;Laerm;45943;53.148;8.204;2024-03-25T01:36:15;42.69;39.81;59.65;;
49215;Laerm;45943;53.148;8.204;2024-03-25T01:38:43;42.87;40.52;45.36;;
49215;Laerm;45943;53.148;8.204;2024-03-25T01:41:11;42.56;39.81;46.59;;
49215;Laerm;45943;53.148;8.204;2024-03-25T01:43:38;42.38;39.12;45.18;;
49215;Laerm;45943;53.148;8.204;2024-03-25T01:46:05;43.78;39.95;47.72;;
49215;Laerm;45943;53.148;8.204;2024-03-25T01:48:31;44.05;40.83;46.11;;
49215;Laerm;45943;53.148;8.204;2024-03-25T01:50:58;41.90;38.97;45.22;;
49215;Laerm;45943;53.148;8.204;2024-03-25T01:53:27;41.99;37.92;59.91;;
49215;Laerm;45943;53.148;8.204;2024-03-25T01:55:55;42.21;39.55;45.54;;
49215;Laerm;45943;53.148;8.204;2024-03-25T01:58:23;42.22;39.12;44.28;;
49215;Laerm;45943;53.148;8.204;2024-03-25T02:00:53;42.80;40.41;45.29;;
49215;Laerm;45943;53.148;8.204;2024-03-25T02:03:20;59.69;41.58;72.33;;
49215;Laerm;45943;53.148;8.204;2024-03-25T02:05:48;50.92;38.48;68.63;;
49215;Laerm;45943;53.148;8.204;2024-03-25T02:08:17;41.53;37.72;44.32;;
49215;Laerm;45943;53.148;8.204;2024-03-25T02:10:43;41.91;39.27;61.27;;
49215;Laerm;45943;53.148;8.204;2024-03-25T02:13:09;42.04;38.65;44.46;;
49215;Laerm;45943;53.148;8.204;2024-03-25T02:15:35;41.83;39.27;44.50;;
49215;Laerm;45943;53.148;8.204;2024-03-25T02:18:01;41.61;39.12;43.74;;
49215;Laerm;45943;53.148;8.204;2024-03-25T02:20:27;41.50;37.72;43.69;;
49215;Laerm;45943;53.148;8.204;2024-03-25T02:22:54;43.20;39.94;46.20;;
49215;Laerm;45943;53.148;8.204;2024-03-25T02:25:21;43.43;40.93;47.96;;
49215;Laerm;45943;53.148;8.204;2024-03-25T02:27:47;43.30;40.93;46.02;;
49215;Laerm;45943;53.148;8.204;2024-03-25T02:30:14;42.52;39.55;60.10;;
49215;Laerm;45943;53.148;8.204;2024-03-25T02:32:40;42.45;39.81;61.91;;
49215;Laerm;45943;53.148;8.204;2024-03-25T02:35:13;42.84;40.30;61.09;;
49215;Laerm;45943;53.148;8.204;2024-03-25T02:37:41;42.75;39.55;59.91;;
49215;Laerm;45943;53.148;8.204;2024-03-25T02:40:08;44.90;41.40;60.26;;
49215;Laerm;45943;53.148;8.204;2024-03-25T02:42:35;43.50;40.52;59.77;;
49215;Laerm;45943;53.148;8.204;2024-03-25T02:45:02;42.70;39.81;44.87;;
49215;Laerm;45943;53.148;8.204;2024-03-25T02:47:28;42.83;40.06;53.96;;
49215;Laerm;45943;53.148;8.204;2024-03-25T02:49:54;50.31;40.18;69.83;;
49215;Laerm;45943;53.148;8.204;2024-03-25T02:52:21;42.96;40.30;45.33;;
49215;Laerm;45943;53.148;8.204;2024-03-25T02:54:47;43.43;41.03;47.64;;
49215;Laerm;45943;53.148;8.204;2024-03-25T02:57:13;43.61;41.22;46.14;;
49215;Laerm;45943;53.148;8.204;2024-03-25T02:59:39;43.41;40.83;60.50;;
49215;Laerm;45943;53.148;8.204;2024-03-25T03:02:05;43.68;40.73;62.28;;
49215;Laerm;45943;53.148;8.204;2024-03-25T03:04:31;42.89;40.41;60.92;;
49215;Laerm;45943;53.148;8.204;2024-03-25T03:06:57;42.81;40.30;59.83;;
49215;Laerm;45943;53.148;8.204;2024-03-25T03:09:23;50.70;41.13;71.48;;
49215;Laerm;45943;53.148;8.204;2024-03-25T03:11:49;50.36;40.41;70.37;;
49215;Laerm;45943;53.148;8.204;2024-03-25T03:14:15;43.16;40.83;45.99;;
49215;Laerm;45943;53.148;8.204;2024-03-25T03:16:41;42.71;39.81;48.64;;
49215;Laerm;45943;53.148;8.204;2024-03-25T03:19:07;43.33;40.18;46.46;;
49215;Laerm;45943;53.148;8.204;2024-03-25T03:21:33;43.38;40.52;50.54;;
49215;Laerm;45943;53.148;8.204;2024-03-25T03:23:59;42.92;40.59;51.93;;
49215;Laerm;45943;53.148;8.204;2024-03-25T03:26:25;47.30;40.73;63.79;;
49215;Laerm;45943;53.148;8.204;2024-03-25T03:28:54;49.80;40.52;68.30;;
49215;Laerm;45943;53.148;8.204;2024-03-25T03:31:20;44.06;40.63;61.20;;
49215;Laerm;45943;53.148;8.204;2024-03-25T03:33:49;60.20;42.56;74.84;;
49215;Laerm;45943;53.148;8.204;2024-03-25T03:36:18;44.62;42.13;61.82;;
49215;Laerm;45943;53.148;8.204;2024-03-25T03:38:45;43.85;41.74;59.08;;
49215;Laerm;45943;53.148;8.204;2024-03-25T03:41:11;44.00;41.98;60.44;;
49215;Laerm;45943;53.148;8.204;2024-03-25T03:43:37;43.85;41.74;59.66;;
49215;Laerm;45943;53.148;8.204;2024-03-25T03:46:04;48.82;41.31;67.39;;
49215;Laerm;45943;53.148;8.204;2024-03-25T03:48:30;43.97;41.31;60.20;;
49215;Laerm;45943;53.148;8.204;2024-03-25T03:50:56;53.14;40.18;73.03;;
49215;Laerm;45943;53.148;8.204;2024-03-25T03:53:22;46.21;40.18;62.33;;
49215;Laerm;45943;53.148;8.204;2024-03-25T03:55:56;50.36;40.73;71.42;;
49215;Laerm;45943;53.148;8.204;2024-03-25T03:58:23;42.96;40.93;51.86;;
49215;Laerm;45943;53.148;8.204;2024-03-25T04:00:49;43.36;40.73;50.47;;
49215;Laerm;45943;53.148;8.204;2024-03-25T04:03:16;43.19;41.03;48.86;;
49215;Laerm;45943;53.148;8.204;2024-03-25T04:05:42;44.91;40.73;53.52;;
49215;Laerm;45943;53.148;8.204;2024-03-25T04:08:08;47.96;41.90;63.94;;
49215;Laerm;45943;53.148;8.204;2024-03-25T04:10:35;44.65;41.74;52.88;;
49215;Laerm;45943;53.148;8.204;2024-03-25T04:13:02;44.23;42.28;53.65;;
49215;Laerm;45943;53.148;8.204;2024-03-25T04:15:28;43.93;41.98;52.91;;
49215;Laerm;45943;53.148;8.204;2024-03-25T04:17:54;44.03;41.66;53.30;;
49215;Laerm;45943;53.148;8.204;2024-03-25T04:20:20;52.39;41.74;69.13;;
49215;Laerm;45943;53.148;8.204;2024-03-25T04:22:46;44.68;41.66;58.58;;
49215;Laerm;45943;53.148;8.204;2024-03-25T04:25:13;49.10;41.98;65.63;;
49215;Laerm;45943;53.148;8.204;2024-03-25T04:27:43;53.73;42.69;71.39;;
49215;Laerm;45943;53.148;8.204;2024-03-25T04:30:10;50.56;42.56;64.45;;
49215;Laerm;45943;53.148;8.204;2024-03-25T04:32:38;52.41;43.01;67.19;;
49215;Laerm;45943;53.148;8.204;2024-03-25T04:35:05;51.16;42.95;64.69;;
49215;Laerm;45943;53.148;8.204;2024-03-25T04:37:33;52.96;43.36;68.76;;
49215;Laerm;45943;53.148;8.204;2024-03-25T04:39:59;53.39;43.07;67.29;;
49215;Laerm;45943;53.148;8.204;2024-03-25T04:42:25;54.08;42.89;69.49;;
49215;Laerm;45943;53.148;8.204;2024-03-25T04:44:51;47.59;42.49;58.60;;
49215;Laerm;45943;53.148;8.204;2024-03-25T04:47:17;47.04;43.01;56.90;;
49215;Laerm;45943;53.148;8.204;2024-03-25T04:49:44;51.80;42.89;67.85;;
49215;Laerm;45943;53.148;8.204;2024-03-25T04:52:11;45.79;42.63;58.68;;
49215;Laerm;45943;53.148;8.204;2024-03-25T04:54:39;54.30;42.69;73.45;;
49215;Laerm;45943;53.148;8.204;2024-03-25T04:57:05;51.53;43.13;71.84;;
49215;Laerm;45943;53.148;8.204;2024-03-25T04:59:32;49.61;43.79;62.24;;
49215;Laerm;45943;53.148;8.204;2024-03-25T05:01:59;45.46;43.53;52.72;;
49215;Laerm;45943;53.148;8.204;2024-03-25T05:04:25;45.92;43.89;53.77;;
49215;Laerm;45943;53.148;8.204;2024-03-25T05:06:51;47.31;44.23;58.27;;
49215;Laerm;45943;53.148;8.204;2024-03-25T05:09:17;56.17;44.02;70.49;;
49215;Laerm;45943;53.148;8.204;2024-03-25T05:11:43;58.06;43.07;72.22;;
49215;Laerm;45943;53.148;8.204;2024-03-25T05:14:09;52.86;43.42;68.36;;
49215;Laerm;45943;53.148;8.204;2024-03-25T05:16:35;49.86;42.82;69.87;;
49215;Laerm;45943;53.148;8.204;2024-03-25T05:19:03;45.49;43.42;57.79;;
49215;Laerm;45943;53.148;8.204;2024-03-25T05:21:32;51.61;43.07;68.81;;
49215;Laerm;45943;53.148;8.204;2024-03-25T05:23:58;53.71;43.48;67.67;;
49215;Laerm;45943;53.148;8.204;2024-03-25T05:26:24;52.48;43.01;68.56;;
49215;Laerm;45943;53.148;8.204;2024-03-25T05:28:56;45.35;42.82;55.11;;
49215;Laerm;45943;53.148;8.204;2024-03-25T05:31:23;48.97;43.13;66.83;;
49215;Laerm;45943;53.148;8.204;2024-03-25T05:33:50;50.88;43.19;67.45;;
49215;Laerm;45943;53.148;8.204;2024-03-25T05:36:16;53.61;43.25;70.31;;
49215;Laerm;45943;53.148;8.204;2024-03-25T05:38:42;45.63;43.25;59.66;;
49215;Laerm;45943;53.148;8.204;2024-03-25T05:41:09;50.61;42.89;69.32;;
49215;Laerm;45943;53.148;8.204;2024-03-25T05:43:36;52.19;43.19;72.21;;
49215;Laerm;45943;53.148;8.204;2024-03-25T05:46:02;54.23;44.32;72.33;;
49215;Laerm;45943;53.148;8.204;2024-03-25T05:48:28;49.09;43.79;77.28;;
49215;Laerm;45943;53.148;8.204;2024-03-25T05:51:03;56.95;44.95;71.48;;
49215;Laerm;45943;53.148;8.204;2024-03-25T05:53:36;52.72;44.23;75.90;;
49215;Laerm;45943;53.148;8.204;2024-03-25T05:56:03;54.96;44.14;73.09;;
49215;Laerm;45943;53.148;8.204;2024-03-25T05:58:29;55.20;44.23;70.19;;
49215;Laerm;45943;53.148;8.204;2024-03-25T06:00:55;56.18;43.94;73.61;;
49215;Laerm;45943;53.148;8.204;2024-03-25T06:03:22;52.84;43.99;68.65;;
49215;Laerm;45943;53.148;8.204;2024-03-25T06:05:48;53.83;43.94;68.18;;
49215;Laerm;45943;53.148;8.204;2024-03-25T06:08:14;54.81;44.14;67.67;;
49215;Laerm;45943;53.148;8.204;2024-03-25T06:10:53;56.39;43.84;72.29;;
49215;Laerm;45943;53.148;8.204;2024-03-25T06:13:20;54.82;44.14;67.72;;
49215;Laerm;45943;53.148;8.204;2024-03-25T06:15:46;54.12;43.48;70.60;;
49215;Laerm;45943;53.148;8.204;2024-03-25T06:18:13;56.30;44.41;70.89;;
49215;Laerm;45943;53.148;8.204;2024-03-25T06:20:39;55.20;43.99;70.29;;
49215;Laerm;45943;53.148;8.204;2024-03-25T06:23:05;55.81;43.36;70.25;;
49215;Laerm;45943;53.148;8.204;2024-03-25T06:25:31;54.44;43.69;72.08;;
49215;Laerm;45943;53.148;8.204;2024-03-25T06:27:57;56.97;43.94;71.01;;
49215;Laerm;45943;53.148;8.204;2024-03-25T06:30:23;56.59;43.42;73.25;;
49215;Laerm;45943;53.148;8.204;2024-03-25T06:33:07;56.29;43.79;69.51;;
49215;Laerm;45943;53.148;8.204;2024-03-25T06:35:52;54.30;42.82;69.87;;
49215;Laerm;45943;53.148;8.204;2024-03-25T06:38:18;53.33;42.69;72.16;;
49215;Laerm;45943;53.148;8.204;2024-03-25T06:40:47;56.33;42.69;70.55;;
49215;Laerm;45943;53.148;8.204;2024-03-25T06:43:13;56.87;43.01;72.61;;
49215;Laerm;45943;53.148;8.204;2024-03-25T06:45:40;63.86;42.82;80.53;;
49215;Laerm;45943;53.148;8.204;2024-03-25T06:48:06;52.57;42.21;66.70;;
49215;Laerm;45943;53.148;8.204;2024-03-25T06:50:32;55.92;42.82;69.75;;
49215;Laerm;45943;53.148;8.204;2024-03-25T06:52:58;59.90;42.42;74.96;;
49215;Laerm;45943;53.148;8.204;2024-03-25T06:55:24;57.84;43.58;71.74;;
49215;Laerm;45943;53.148;8.204;2024-03-25T06:57:53;56.42;44.59;69.23;;
49215;Laerm;45943;53.148;8.204;2024-03-25T07:00:19;54.15;43.01;70.56;;
49215;Laerm;45943;53.148;8.204;2024-03-25T07:02:46;51.16;43.48;66.67;;
49215;Laerm;45943;53.148;8.204;2024-03-25T07:05:12;51.12;43.07;66.66;;
49215;Laerm;45943;53.148;8.204;2024-03-25T07:07:38;57.83;44.28;72.51;;
49215;Laerm;45943;53.148;8.204;2024-03-25T07:10:04;54.96;43.74;71.67;;
49215;Laerm;45943;53.148;8.204;2024-03-25T07:12:30;56.91;43.99;69.75;;
49215;Laerm;45943;53.148;8.204;2024-03-25T07:14:56;55.03;43.94;69.18;;
49215;Laerm;45943;53.148;8.204;2024-03-25T07:17:22;53.33;43.25;68.15;;
49215;Laerm;45943;53.148;8.204;2024-03-25T07:19:48;55.81;42.63;70.06;;
49215;Laerm;45943;53.148;8.204;2024-03-25T07:22:14;54.19;42.76;69.07;;
49215;Laerm;45943;53.148;8.204;2024-03-25T07:24:40;56.58;42.76;70.62;;
49215;Laerm;45943;53.148;8.204;2024-03-25T07:27:06;58.19;43.84;73.50;;
49215;Laerm;45943;53.148;8.204;2024-03-25T07:29:33;56.82;42.69;72.72;;
49215;Laerm;45943;53.148;8.204;2024-03-25T07:31:59;56.20;42.89;68.39;;
49215;Laerm;45943;53.148;8.204;2024-03-25T07:34:25;52.63;41.82;67.51;;
49215;Laerm;45943;53.148;8.204;2024-03-25T07:36:52;52.44;41.90;70.87;;
49215;Laerm;45943;53.148;8.204;2024-03-25T07:39:18;54.39;42.35;69.31;;
49215;Laerm;45943;53.148;8.204;2024-03-25T07:41:44;54.73;42.21;70.77;;
49215;Laerm;45943;53.148;8.204;2024-03-25T07:44:10;53.00;41.58;69.55;;
49215;Laerm;45943;53.148;8.204;2024-03-25T07:46:37;56.98;43.69;68.86;;
49215;Laerm;45943;53.148;8.204;2024-03-25T07:49:03;55.33;41.49;69.81;;
49215;Laerm;45943;53.148;8.204;2024-03-25T07:51:29;55.06;42.13;69.00;;
49215;Laerm;45943;53.148;8.204;2024-03-25T07:53:55;51.62;42.06;71.47;;
49215;Laerm;45943;53.148;8.204;2024-03-25T07:56:21;52.02;41.40;69.31;;
49215;Laerm;45943;53.148;8.204;2024-03-25T07:58:47;54.60;41.90;71.53;;
49215;Laerm;45943;53.148;8.204;2024-03-25T08:01:13;53.35;42.06;69.12;;
49215;Laerm;45943;53.148;8.204;2024-03-25T08:03:39;50.09;42.35;63.84;;
49215;Laerm;45943;53.148;8.204;2024-03-25T08:06:05;54.63;42.21;68.28;;
49215;Laerm;45943;53.148;8.204;2024-03-25T08:08:32;54.67;42.21;68.01;;
49215;Laerm;45943;53.148;8.204;2024-03-25T08:10:58;53.45;41.74;67.09;;
49215;Laerm;45943;53.148;8.204;2024-03-25T08:13:24;55.54;41.98;71.10;;
49215;Laerm;45943;53.148;8.204;2024-03-25T08:15:52;51.64;42.21;69.06;;
49215;Laerm;45943;53.148;8.204;2024-03-25T08:18:18;54.10;41.90;70.24;;
49215;Laerm;45943;53.148;8.204;2024-03-25T08:20:44;55.71;42.89;69.68;;
49215;Laerm;45943;53.148;8.204;2024-03-25T08:23:10;59.97;41.40;78.01;;
49215;Laerm;45943;53.148;8.204;2024-03-25T08:25:36;54.68;42.06;67.81;;
49215;Laerm;45943;53.148;8.204;2024-03-25T08:28:02;54.15;42.76;68.35;;
49215;Laerm;45943;53.148;8.204;2024-03-25T08:30:28;54.73;42.42;72.24;;
49215;Laerm;45943;53.148;8.204;2024-03-25T08:32:54;68.41;42.69;92.42;;
49215;Laerm;45943;53.148;8.204;2024-03-25T08:35:20;52.90;41.74;67.55;;
49215;Laerm;45943;53.148;8.204;2024-03-25T08:37:46;49.13;42.21;62.10;;
49215;Laerm;45943;53.148;8.204;2024-03-25T08:40:12;53.91;42.82;66.80;;
49215;Laerm;45943;53.148;8.204;2024-03-25T08:42:38;54.73;42.63;69.83;;
49215;Laerm;45943;53.148;8.204;2024-03-25T08:45:04;52.01;42.69;70.18;;
49215;Laerm;45943;53.148;8.204;2024-03-25T08:47:31;57.14;43.36;70.80;;
49215;Laerm;45943;53.148;8.204;2024-03-25T08:49:57;54.32;42.69;70.08;;
49215;Laerm;45943;53.148;8.204;2024-03-25T08:52:23;56.80;42.49;73.22;;
49215;Laerm;45943;53.148;8.204;2024-03-25T08:54:49;55.13;42.42;69.43;;
49215;Laerm;45943;53.148;8.204;2024-03-25T08:57:15;57.13;42.69;71.86;;
49215;Laerm;45943;53.148;8.204;2024-03-25T08:59:41;50.45;42.42;65.65;;
49215;Laerm;45943;53.148;8.204;2024-03-25T09:02:07;55.95;43.89;80.52;;
49215;Laerm;45943;53.148;8.204;2024-03-25T09:04:33;55.13;41.74;70.57;;
49215;Laerm;45943;53.148;8.204;2024-03-25T09:06:59;52.36;42.49;68.65;;
49215;Laerm;45943;53.148;8.204;2024-03-25T09:09:25;56.30;41.22;80.54;;
49215;Laerm;45943;53.148;8.204;2024-03-25T09:12:10;58.35;41.90;74.19;;
49215;Laerm;45943;53.148;8.204;2024-03-25T09:14:36;58.95;42.21;68.89;;
49215;Laerm;45943;53.148;8.204;2024-03-25T09:17:04;54.39;42.28;69.81;;
49215;Laerm;45943;53.148;8.204;2024-03-25T09:19:30;58.67;43.42;80.78;;
49215;Laerm;45943;53.148;8.204;2024-03-25T09:21:56;57.18;41.58;78.83;;
49215;Laerm;45943;53.148;8.204;2024-03-25T09:24:22;53.78;41.03;79.03;;
49215;Laerm;45943;53.148;8.204;2024-03-25T09:26:51;53.89;41.58;68.94;;
49215;Laerm;45943;53.148;8.204;2024-03-25T09:29:17;58.50;41.40;70.40;;
49215;Laerm;45943;53.148;8.204;2024-03-25T09:31:43;49.48;42.96;62.99;;
49215;Laerm;45943;53.148;8.204;2024-03-25T09:34:09;61.42;42.82;71.38;;
49215;Laerm;45943;53.148;8.204;2024-03-25T09:36:35;63.56;43.25;74.91;;
49215;Laerm;45943;53.148;8.204;2024-03-25T09:39:01;56.55;43.48;70.47;;
49215;Laerm;45943;53.148;8.204;2024-03-25T09:41:29;57.63;44.41;71.92;;
49215;Laerm;45943;53.148;8.204;2024-03-25T09:44:00;52.52;41.82;68.99;;
49215;Laerm;45943;53.148;8.204;2024-03-25T09:46:26;50.51;42.13;67.75;;
49215;Laerm;45943;53.148;8.204;2024-03-25T09:48:53;57.93;42.95;73.65;;
49215;Laerm;45943;53.148;8.204;2024-03-25T09:51:20;61.45;43.58;74.85;;
49215;Laerm;45943;53.148;8.204;2024-03-25T09:53:46;56.11;41.82;68.57;;
49215;Laerm;45943;53.148;8.204;2024-03-25T09:56:13;55.93;41.22;71.27;;
49215;Laerm;45943;53.148;8.204;2024-03-25T09:58:40;49.36;40.83;65.34;;
49215;Laerm;45943;53.148;8.204;2024-03-25T10:01:07;54.20;40.93;68.85;;
49215;Laerm;45943;53.148;8.204;2024-03-25T10:03:33;51.75;42.13;65.37;;
49215;Laerm;45943;53.148;8.204;2024-03-25T10:05:59;47.07;42.49;59.66;;
49215;Laerm;45943;53.148;8.204;2024-03-25T10:08:25;55.83;42.28;67.62;;
49215;Laerm;45943;53.148;8.204;2024-03-25T10:10:52;51.15;41.79;63.99;;
49215;Laerm;45943;53.148;8.204;2024-03-25T10:13:18;55.96;42.06;67.87;;
49215;Laerm;45943;53.148;8.204;2024-03-25T10:15:47;49.61;40.93;62.05;;
49215;Laerm;45943;53.148;8.204;2024-03-25T10:18:13;53.43;41.40;66.20;;
49215;Laerm;45943;53.148;8.204;2024-03-25T10:20:50;52.24;41.22;67.44;;
49215;Laerm;45943;53.148;8.204;2024-03-25T10:23:23;55.27;41.13;68.93;;
49215;Laerm;45943;53.148;8.204;2024-03-25T10:25:52;54.16;41.49;69.08;;
49215;Laerm;45943;53.148;8.204;2024-03-25T10:28:19;53.60;42.42;67.09;;
49215;Laerm;45943;53.148;8.204;2024-03-25T10:30:45;52.66;40.73;65.86;;
49215;Laerm;45943;53.148;8.204;2024-03-25T10:33:11;50.38;41.49;64.42;;
49215;Laerm;45943;53.148;8.204;2024-03-25T10:35:38;53.25;41.74;65.47;;
49215;Laerm;45943;53.148;8.204;2024-03-25T10:38:07;52.98;41.74;68.65;;
49215;Laerm;45943;53.148;8.204;2024-03-25T10:40:38;53.97;41.74;67.36;;
49215;Laerm;45943;53.148;8.204;2024-03-25T10:43:06;55.68;40.73;67.72;;
49215;Laerm;45943;53.148;8.204;2024-03-25T10:45:34;51.36;41.49;64.16;;
49215;Laerm;45943;53.148;8.204;2024-03-25T10:50:34;53.71;40.83;65.42;;
49215;Laerm;45943;53.148;8.204;2024-03-25T10:53:02;54.99;40.83;66.57;;
49215;Laerm;45943;53.148;8.204;2024-03-25T10:55:31;52.83;41.58;68.01;;
49215;Laerm;45943;53.148;8.204;2024-03-25T10:58:00;53.57;41.49;66.18;;
49215;Laerm;45943;53.148;8.204;2024-03-25T11:00:27;55.80;41.31;67.70;;
49215;Laerm;45943;53.148;8.204;2024-03-25T11:02:54;56.90;41.13;67.84;;
49215;Laerm;45943;53.148;8.204;2024-03-25T11:05:20;54.05;42.35;73.57;;
49215;Laerm;45943;53.148;8.204;2024-03-25T11:07:46;49.98;40.68;67.18;;
49215;Laerm;45943;53.148;8.204;2024-03-25T11:10:12;50.23;40.52;68.05;;
49215;Laerm;45943;53.148;8.204;2024-03-25T11:12:41;49.82;40.06;67.92;;
49215;Laerm;45943;53.148;8.204;2024-03-25T11:15:08;52.22;40.18;69.23;;
49215;Laerm;45943;53.148;8.204;2024-03-25T11:17:35;53.10;40.63;71.31;;
49215;Laerm;45943;53.148;8.204;2024-03-25T11:20:16;55.21;40.49;72.95;;
49215;Laerm;45943;53.148;8.204;2024-03-25T11:22:52;56.61;43.19;75.97;;
49215;Laerm;45943;53.148;8.204;2024-03-25T11:25:41;54.77;41.49;67.24;;
49215;Laerm;45943;53.148;8.204;2024-03-25T11:28:10;51.06;40.93;65.38;;
49215;Laerm;45943;53.148;8.204;2024-03-25T11:30:37;60.19;41.31;73.98;;
49215;Laerm;45943;53.148;8.204;2024-03-25T11:33:04;51.01;40.18;66.74;;
49215;Laerm;45943;53.148;8.204;2024-03-25T11:35:37;52.10;39.81;65.96;;
49215;Laerm;45943;53.148;8.204;2024-03-25T11:38:03;52.23;40.41;67.23;;
49215;Laerm;45943;53.148;8.204;2024-03-25T11:40:29;52.03;40.73;64.30;;
49215;Laerm;45943;53.148;8.204;2024-03-25T11:42:55;50.93;41.31;63.22;;
49215;Laerm;45943;53.148;8.204;2024-03-25T11:45:22;52.65;40.73;69.99;;
49215;Laerm;45943;53.148;8.204;2024-03-25T11:47:49;54.26;40.73;67.12;;
49215;Laerm;45943;53.148;8.204;2024-03-25T11:50:17;55.87;40.93;72.45;;
49215;Laerm;45943;53.148;8.204;2024-03-25T11:52:43;53.73;42.35;66.29;;
49215;Laerm;45943;53.148;8.204;2024-03-25T11:55:10;50.98;43.48;69.51;;
49215;Laerm;45943;53.148;8.204;2024-03-25T11:57:38;46.41;39.55;61.52;;
49215;Laerm;45943;53.148;8.204;2024-03-25T12:00:04;50.32;40.18;62.25;;
49215;Laerm;45943;53.148;8.204;2024-03-25T12:02:32;53.14;41.82;71.09;;
49215;Laerm;45943;53.148;8.204;2024-03-25T12:04:58;51.02;40.73;75.95;;
49215;Laerm;45943;53.148;8.204;2024-03-25T12:07:24;59.69;40.73;69.85;;
49215;Laerm;45943;53.148;8.204;2024-03-25T12:09:50;59.82;40.93;69.23;;
49215;Laerm;45943;53.148;8.204;2024-03-25T12:12:34;59.80;40.93;83.35;;
49215;Laerm;45943;53.148;8.204;2024-03-25T12:15:00;53.12;40.18;64.77;;
49215;Laerm;45943;53.148;8.204;2024-03-25T12:17:29;50.93;40.41;64.05;;
49215;Laerm;45943;53.148;8.204;2024-03-25T12:20:05;63.38;41.03;86.98;;
49215;Laerm;45943;53.148;8.204;2024-03-25T12:22:32;58.83;42.35;71.32;;
49215;Laerm;45943;53.148;8.204;2024-03-25T12:25:06;53.09;40.30;70.65;;
49215;Laerm;45943;53.148;8.204;2024-03-25T12:27:34;55.98;41.03;72.17;;
49215;Laerm;45943;53.148;8.204;2024-03-25T12:32:39;56.98;41.03;76.54;;
49215;Laerm;45943;53.148;8.204;2024-03-25T12:35:13;60.27;41.49;76.70;;
49215;Laerm;45943;53.148;8.204;2024-03-25T12:37:41;53.04;41.66;67.60;;
49215;Laerm;45943;53.148;8.204;2024-03-25T12:40:09;56.47;41.82;69.30;;
49215;Laerm;45943;53.148;8.204;2024-03-25T12:42:37;53.35;42.21;68.62;;
49215;Laerm;45943;53.148;8.204;2024-03-25T12:45:05;49.29;40.73;65.01;;
49215;Laerm;45943;53.148;8.204;2024-03-25T12:47:32;55.11;40.52;73.03;;
49215;Laerm;45943;53.148;8.204;2024-03-25T12:49:58;53.52;41.31;70.28;;
49215;Laerm;45943;53.148;8.204;2024-03-25T12:52:25;50.78;41.31;67.53;;
49215;Laerm;45943;53.148;8.204;2024-03-25T12:54:51;53.32;41.66;68.87;;
49215;Laerm;45943;53.148;8.204;2024-03-25T12:57:17;55.18;41.74;69.61;;
49215;Laerm;45943;53.148;8.204;2024-03-25T12:59:44;55.66;41.82;72.82;;
49215;Laerm;45943;53.148;8.204;2024-03-25T13:02:12;51.61;40.73;66.19;;
49215;Laerm;45943;53.148;8.204;2024-03-25T13:04:38;54.68;40.73;69.81;;
49215;Laerm;45943;53.148;8.204;2024-03-25T13:07:05;53.19;40.18;67.81;;
49215;Laerm;45943;53.148;8.204;2024-03-25T13:09:31;53.53;40.52;70.32;;
49215;Laerm;45943;53.148;8.204;2024-03-25T13:11:58;54.04;39.55;69.05;;
49215;Laerm;45943;53.148;8.204;2024-03-25T13:14:24;50.48;39.81;68.28;;
49215;Laerm;45943;53.148;8.204;2024-03-25T13:16:50;56.43;38.97;72.78;;
49215;Laerm;45943;53.148;8.204;2024-03-25T13:19:17;58.45;41.48;77.25;;
49215;Laerm;45943;53.148;8.204;2024-03-25T13:21:43;54.43;40.06;66.87;;
49215;Laerm;45943;53.148;8.204;2024-03-25T13:24:10;54.19;38.12;69.08;;
49215;Laerm;45943;53.148;8.204;2024-03-25T13:26:36;53.11;39.83;69.62;;
49215;Laerm;45943;53.148;8.204;2024-03-25T13:29:02;54.35;40.93;68.32;;
49215;Laerm;45943;53.148;8.204;2024-03-25T13:31:28;55.39;39.81;67.95;;
49215;Laerm;45943;53.148;8.204;2024-03-25T13:33:54;54.92;40.41;70.35;;
49215;Laerm;45943;53.148;8.204;2024-03-25T13:36:20;55.14;41.49;67.43;;
49215;Laerm;45943;53.148;8.204;2024-03-25T13:38:46;50.94;40.18;67.30;;
49215;Laerm;45943;53.148;8.204;2024-03-25T13:41:12;55.06;40.41;68.71;;
49215;Laerm;45943;53.148;8.204;2024-03-25T13:43:44;54.38;39.68;72.46;;
49215;Laerm;45943;53.148;8.204;2024-03-25T13:46:10;56.94;41.90;71.20;;
49215;Laerm;45943;53.148;8.204;2024-03-25T13:48:38;54.26;39.68;68.03;;